Time;durP1;ratioP1;P1;durP2;ratioP2;P2;SDS_P1;SDS_P2;PMS_P1;PMS_P2;Temp;Humidity;BMP_temperature;BMP_pressure;BME280_temperature;BME280_humidity;BME280_pressure;Samples;Min_cycle;Max_cycle;Signal;HPM_P1;HPM_P2
2022/09/06 00:00:06;;;;;;;0.00;0.00;;;26.60;54.60;;;;;;4146195;28;20056;-70
2022/09/06 00:02:52;;;;;;;0.00;0.00;;;26.60;54.50;;;;;;4158843;28;20067;-71
2022/09/06 00:05:35;;;;;;;;;;;26.60;54.60;;;;;;4157719;28;20056;-70
2022/09/06 00:08:17;;;;;;;0.00;0.00;;;26.60;54.20;;;;;;4165179;28;19932;-70
2022/09/06 00:10:59;;;;;;;0.43;0.43;;;26.50;54.50;;;;;;4172519;28;20056;-70
2022/09/06 00:13:42;;;;;;;0.00;0.00;;;26.60;54.60;;;;;;4172822;28;20412;-69
2022/09/06 00:16:25;;;;;;;0.00;0.00;;;26.50;54.60;;;;;;4175713;28;20521;-69
2022/09/06 00:19:10;;;;;;;0.00;0.00;;;26.50;54.70;;;;;;4174705;28;20090;-70
2022/09/06 00:21:55;;;;;;;0.32;0.32;;;26.50;54.60;;;;;;4161696;28;20051;-70
2022/09/06 00:24:39;;;;;;;0.85;0.85;;;26.50;54.70;;;;;;4175398;28;20059;-71
2022/09/06 00:27:21;;;;;;;0.00;0.00;;;26.50;54.60;;;;;;4163341;28;20138;-70
2022/09/06 00:30:03;;;;;;;0.10;0.10;;;26.50;54.60;;;;;;4147572;28;20060;-69
2022/09/06 00:32:44;;;;;;;0.13;0.13;;;26.50;54.50;;;;;;4158489;28;20048;-70
2022/09/06 00:35:27;;;;;;;0.15;0.15;;;26.50;54.60;;;;;;4146927;28;20056;-71
2022/09/06 00:38:10;;;;;;;0.03;0.03;;;26.50;54.70;;;;;;4171854;28;20056;-70
2022/09/06 00:40:51;;;;;;;0.10;0.00;;;26.50;54.70;;;;;;4158545;28;20048;-71
2022/09/06 00:43:33;;;;;;;0.00;0.00;;;26.50;54.70;;;;;;4159432;28;20056;-69
2022/09/06 00:46:19;;;;;;;0.00;0.00;;;26.50;54.80;;;;;;4162659;28;20415;-69
2022/09/06 00:49:04;;;;;;;0.00;0.00;;;26.50;54.80;;;;;;4175249;28;20061;-71
2022/09/06 00:51:48;;;;;;;0.32;0.32;;;26.40;54.70;;;;;;4171984;28;20103;-70
2022/09/06 00:54:32;;;;;;;0.00;0.00;;;26.50;54.80;;;;;;4168194;28;20511;-71
2022/09/06 00:57:19;;;;;;;5.15;1.40;;;26.40;54.70;;;;;;4165471;28;20106;-68
2022/09/06 01:00:05;;;;;;;0.40;0.40;;;26.50;54.80;;;;;;4146893;28;20056;-69
2022/09/06 01:02:47;;;;;;;0.15;0.15;;;26.50;54.80;;;;;;4145943;28;20048;-70
2022/09/06 01:05:38;;;;;;;0.00;0.00;;;26.40;54.80;;;;;;4159368;28;20052;-69
2022/09/06 01:08:28;;;;;;;0.00;0.00;;;26.40;54.70;;;;;;4157090;28;20067;-69
2022/09/06 01:11:22;;;;;;;0.00;0.00;;;26.40;54.80;;;;;;4145898;28;20041;-69
2022/09/06 01:14:17;;;;;;;0.00;0.00;;;26.40;54.70;;;;;;4132937;28;20051;-68
2022/09/06 01:17:11;;;;;;;0.00;0.00;;;26.40;54.80;;;;;;4145496;28;20061;-69
2022/09/06 01:20:25;;;;;;;0.00;0.00;;;26.40;54.80;;;;;;4156991;28;20092;-69
2022/09/06 01:23:29;;;;;;;0.30;0.30;;;26.40;54.80;;;;;;4156397;28;20056;-69
2022/09/06 01:26:54;;;;;;;0.43;0.43;;;26.40;54.80;;;;;;4141811;28;20526;-69
2022/09/06 01:29:48;;;;;;;0.00;0.00;;;26.40;54.80;;;;;;4127732;28;20065;-69
2022/09/06 01:32:39;;;;;;;0.00;0.00;;;26.40;55.50;;;;;;4118777;28;20579;-69
2022/09/06 01:35:41;;;;;;;7.05;3.20;;;26.40;54.80;;;;;;4152214;28;20252;-69
2022/09/06 01:38:25;;;;;;;0.43;0.43;;;26.30;54.70;;;;;;4160865;28;20052;-69
2022/09/06 01:41:07;;;;;;;0.00;0.00;;;26.30;54.70;;;;;;4155994;28;20053;-70
2022/09/06 01:43:50;;;;;;;0.00;0.00;;;26.30;54.70;;;;;;4154304;28;20179;-70
2022/09/06 01:46:38;;;;;;;0.35;0.35;;;26.30;54.80;;;;;;4169454;28;20194;-70
2022/09/06 01:49:30;;;;;;;0.00;0.00;;;26.30;54.80;;;;;;4161802;28;20063;-69
2022/09/06 01:52:19;;;;;;;0.10;0.10;;;26.30;54.70;;;;;;4160804;28;20063;-69
2022/09/06 01:55:15;;;;;;;0.00;0.00;;;26.30;54.80;;;;;;4172363;28;20161;-70
2022/09/06 01:58:16;;;;;;;0.00;0.00;;;26.30;54.80;;;;;;4148717;28;20055;-70
2022/09/06 02:01:06;;;;;;;0.00;0.00;;;26.30;54.70;;;;;;4158679;28;20123;-71
2022/09/06 02:03:57;;;;;;;0.10;0.10;;;26.30;54.80;;;;;;4144653;28;20056;-70
2022/09/06 02:06:42;;;;;;;0.00;0.00;;;26.30;54.70;;;;;;4151506;28;20052;-69
2022/09/06 02:09:25;;;;;;;0.15;0.15;;;26.30;54.80;;;;;;4172269;28;20122;-70
2022/09/06 02:12:16;;;;;;;0.00;0.00;;;26.30;55.60;;;;;;4150155;28;20048;-71
2022/09/06 02:15:03;;;;;;;0.00;0.00;;;26.30;54.80;;;;;;4171987;28;20052;-71
2022/09/06 02:17:50;;;;;;;0.00;0.00;;;26.30;55.60;;;;;;4169519;28;20127;-71
2022/09/06 02:20:38;;;;;;;1.45;1.17;;;26.20;54.80;;;;;;4155607;28;20186;-73
2022/09/06 02:23:23;;;;;;;0.38;0.38;;;26.30;54.90;;;;;;4157947;28;20060;-71
2022/09/06 02:26:09;;;;;;;0.65;0.65;;;26.20;54.80;;;;;;4154882;28;20538;-70
2022/09/06 02:28:51;;;;;;;0.00;0.00;;;26.20;54.80;;;;;;4165984;28;20075;-71
2022/09/06 02:31:39;;;;;;;0.00;0.00;;;26.20;54.80;;;;;;4161457;28;20106;-72
2022/09/06 02:34:24;;;;;;;0.00;0.00;;;26.20;54.70;;;;;;4162544;28;20094;-70
2022/09/06 02:37:16;;;;;;;0.28;0.28;;;26.20;54.80;;;;;;4175253;28;20408;-70
2022/09/06 02:39:58;;;;;;;0.10;0.10;;;26.10;54.50;;;;;;4176494;28;20056;-71
2022/09/06 02:42:47;;;;;;;0.00;0.00;;;26.20;54.60;;;;;;4162363;28;20056;-70
2022/09/06 02:45:30;;;;;;;0.03;0.03;;;26.10;54.70;;;;;;4174331;28;20055;-70
2022/09/06 02:48:13;;;;;;;0.00;0.00;;;26.10;54.60;;;;;;4160733;28;20055;-70
2022/09/06 02:51:03;;;;;;;0.00;0.00;;;26.10;54.70;;;;;;4175220;28;20118;-72
2022/09/06 02:53:47;;;;;;;0.00;0.00;;;26.10;54.80;;;;;;4173041;28;20219;-70
2022/09/06 02:56:35;;;;;;;0.10;0.10;;;26.00;54.70;;;;;;4147307;28;20604;-71
2022/09/06 02:59:20;;;;;;;0.20;0.20;;;26.00;54.70;;;;;;4141818;28;20602;-70
2022/09/06 03:02:02;;;;;;;0.00;0.00;;;26.00;54.80;;;;;;4159937;28;20071;-70
2022/09/06 03:04:43;;;;;;;0.25;0.25;;;26.00;54.90;;;;;;4147858;28;20412;-69
2022/09/06 03:07:25;;;;;;;0.00;0.00;;;26.00;55.00;;;;;;4142597;28;20400;-70
2022/09/06 03:10:18;;;;;;;0.13;0.13;;;26.00;54.90;;;;;;4161249;28;20411;-71
2022/09/06 03:13:00;;;;;;;0.00;0.00;;;26.00;54.90;;;;;;4166221;28;20582;-71
2022/09/06 03:15:44;;;;;;;0.00;0.00;;;25.90;54.90;;;;;;4163013;28;20055;-71
2022/09/06 03:18:32;;;;;;;0.00;0.00;;;25.90;54.90;;;;;;4131697;28;20138;-72
2022/09/06 03:21:14;;;;;;;0.15;0.15;;;25.90;54.90;;;;;;4161241;28;20515;-71
2022/09/06 03:23:58;;;;;;;0.15;0.15;;;25.90;54.90;;;;;;4159879;28;20134;-72
2022/09/06 03:26:43;;;;;;;0.05;0.05;;;25.90;54.90;;;;;;4164026;28;20056;-72
2022/09/06 03:29:25;;;;;;;0.00;0.00;;;25.90;54.90;;;;;;4175684;28;20048;-72
2022/09/06 03:32:12;;;;;;;0.00;0.00;;;25.90;54.90;;;;;;4162857;28;20626;-72
2022/09/06 03:34:54;;;;;;;0.43;0.43;;;25.90;54.90;;;;;;4175282;28;20051;-71
2022/09/06 03:37:37;;;;;;;0.00;0.00;;;25.90;54.80;;;;;;4162831;28;20788;-72
2022/09/06 03:40:21;;;;;;;0.10;0.10;;;25.90;54.90;;;;;;4158914;28;20408;-71
2022/09/06 03:43:05;;;;;;;0.28;0.28;;;25.90;54.90;;;;;;4160567;28;20072;-72
2022/09/06 03:45:48;;;;;;;0.00;0.00;;;25.90;54.90;;;;;;4168988;28;20047;-71
2022/09/06 03:48:31;;;;;;;0.00;0.00;;;25.90;55.00;;;;;;4110571;28;20053;-72
2022/09/06 03:51:21;;;;;;;0.35;0.35;;;25.80;54.90;;;;;;4163910;28;20072;-72
2022/09/06 03:54:02;;;;;;;;;;;25.80;55.00;;;;;;4157691;28;20056;-72
2022/09/06 03:56:44;;;;;;;0.10;0.10;;;25.80;54.90;;;;;;4160530;28;19975;-72
2022/09/06 03:59:27;;;;;;;0.10;0.10;;;25.80;55.00;;;;;;4159121;28;20095;-72
2022/09/06 04:02:09;;;;;;;0.08;0.08;;;25.80;55.00;;;;;;4145321;28;20056;-72
2022/09/06 04:04:54;;;;;;;0.00;0.00;;;25.80;55.00;;;;;;4137357;28;20079;-71
2022/09/06 04:07:37;;;;;;;0.00;0.00;;;25.80;55.10;;;;;;4173687;28;20056;-71
2022/09/06 04:10:20;;;;;;;0.10;0.10;;;25.80;55.10;;;;;;4149196;28;20057;-71
2022/09/06 04:13:04;;;;;;;0.25;0.25;;;25.80;55.10;;;;;;4176338;28;20047;-71
2022/09/06 04:15:48;;;;;;;0.00;0.00;;;25.70;55.00;;;;;;4145896;28;20059;-72
2022/09/06 04:18:32;;;;;;;0.00;0.00;;;25.70;55.00;;;;;;4147251;28;20063;-71
2022/09/06 04:21:20;;;;;;;0.00;0.00;;;25.70;55.00;;;;;;4136100;28;20638;-68
2022/09/06 04:24:12;;;;;;;0.00;0.00;;;25.70;55.00;;;;;;4139142;28;20049;-68
2022/09/06 04:26:55;;;;;;;0.00;0.00;;;25.70;55.10;;;;;;4165675;28;20056;-67
2022/09/06 04:29:36;;;;;;;0.00;0.00;;;25.70;55.10;;;;;;4156393;28;20048;-69
2022/09/06 04:32:22;;;;;;;0.10;0.10;;;25.70;55.00;;;;;;4164238;28;20063;-68
2022/09/06 04:35:09;;;;;;;0.00;0.00;;;25.70;55.10;;;;;;4138223;28;20657;-69
2022/09/06 04:37:53;;;;;;;0.35;0.35;;;25.70;55.10;;;;;;4163617;28;20059;-68
2022/09/06 04:40:39;;;;;;;0.10;0.10;;;25.70;55.10;;;;;;4159019;28;20060;-68
2022/09/06 04:43:24;;;;;;;0.30;0.30;;;25.70;55.10;;;;;;4148067;28;20056;-68
2022/09/06 04:46:20;;;;;;;0.37;0.37;;;25.70;55.10;;;;;;4168815;28;20114;-70
2022/09/06 04:49:03;;;;;;;0.25;0.25;;;25.70;55.10;;;;;;4163414;28;20438;-70
2022/09/06 04:51:49;;;;;;;0.10;0.10;;;25.70;55.50;;;;;;4174720;28;20548;-70
2022/09/06 04:54:30;;;;;;;0.00;0.00;;;25.80;55.70;;;;;;4151531;28;20092;-69
2022/09/06 04:57:13;;;;;;;0.10;0.10;;;25.70;55.60;;;;;;4158575;28;20060;-71
2022/09/06 04:59:55;;;;;;;0.00;0.00;;;25.70;55.50;;;;;;4152466;28;20053;-70
2022/09/06 05:02:43;;;;;;;18.33;1.55;;;25.70;55.50;;;;;;4145500;28;20052;-70
2022/09/06 05:05:27;;;;;;;0.20;0.20;;;25.70;55.40;;;;;;4146027;28;20134;-70
2022/09/06 05:08:08;;;;;;;2.30;1.17;;;25.70;55.40;;;;;;4160095;28;20059;-71
2022/09/06 05:10:52;;;;;;;0.00;0.00;;;25.70;55.30;;;;;;4172210;28;20356;-71
2022/09/06 05:13:32;;;;;;;0.00;0.00;;;25.70;55.30;;;;;;4173384;28;20109;-70
2022/09/06 05:16:20;;;;;;;0.00;0.00;;;25.70;55.40;;;;;;4145071;28;20186;-70
2022/09/06 05:19:01;;;;;;;0.00;0.00;;;25.70;55.30;;;;;;4133178;28;20059;-70
2022/09/06 05:21:44;;;;;;;0.00;0.00;;;25.70;55.30;;;;;;4156470;28;20119;-71
2022/09/06 05:24:26;;;;;;;0.00;0.00;;;25.70;55.40;;;;;;4156131;28;20095;-70
2022/09/06 05:27:07;;;;;;;;;;;25.70;55.40;;;;;;4155954;28;20665;-72
2022/09/06 05:29:50;;;;;;;0.20;0.20;;;25.70;55.40;;;;;;4158534;28;20006;-71
2022/09/06 05:32:33;;;;;;;0.20;0.20;;;25.60;55.30;;;;;;4134249;28;20404;-70
2022/09/06 05:35:15;;;;;;;0.00;0.00;;;25.60;55.30;;;;;;4151644;28;20423;-69
2022/09/06 05:38:02;;;;;;;0.00;0.00;;;25.60;56.10;;;;;;4146945;28;20049;-71
2022/09/06 05:40:44;;;;;;;0.00;0.00;;;25.60;55.40;;;;;;4121608;28;20132;-70
2022/09/06 05:43:28;;;;;;;0.15;0.15;;;25.60;55.40;;;;;;4138783;28;20184;-70
2022/09/06 05:46:13;;;;;;;0.10;0.10;;;25.60;55.40;;;;;;4110036;28;20057;-69
2022/09/06 05:49:09;;;;;;;0.00;0.00;;;25.60;55.40;;;;;;4116209;28;20076;-71
2022/09/06 05:51:56;;;;;;;0.00;0.00;;;25.60;55.40;;;;;;4146278;28;20056;-69
2022/09/06 05:54:51;;;;;;;0.00;0.00;;;25.60;55.50;;;;;;4126992;28;20086;-70
2022/09/06 05:57:45;;;;;;;0.30;0.30;;;25.60;55.60;;;;;;4128398;28;20052;-70
2022/09/06 06:00:30;;;;;;;2.35;1.08;;;25.60;55.70;;;;;;4143105;28;20503;-69
2022/09/06 06:03:13;;;;;;;0.40;0.40;;;25.50;55.70;;;;;;4169046;28;20186;-69
2022/09/06 06:05:54;;;;;;;0.20;0.20;;;25.50;55.70;;;;;;4158409;28;20072;-70
2022/09/06 06:08:36;;;;;;;0.00;0.00;;;25.60;55.80;;;;;;4155975;28;20259;-70
2022/09/06 06:11:19;;;;;;;0.00;0.00;;;25.50;55.70;;;;;;4138331;28;20055;-69
2022/09/06 06:14:02;;;;;;;0.00;0.00;;;25.50;55.70;;;;;;4149941;28;20107;-69
2022/09/06 06:16:44;;;;;;;0.38;0.35;;;25.50;55.70;;;;;;4141223;28;20060;-69
2022/09/06 06:19:27;;;;;;;0.47;0.47;;;25.50;55.70;;;;;;4143876;28;20068;-69
2022/09/06 06:22:09;;;;;;;1.00;1.00;;;25.50;55.80;;;;;;4124722;28;20104;-69
2022/09/06 06:24:51;;;;;;;16.77;1.00;;;25.50;55.80;;;;;;4156345;28;20044;-70
2022/09/06 06:27:35;;;;;;;0.00;0.00;;;25.50;55.80;;;;;;4171685;28;20141;-71
2022/09/06 06:30:21;;;;;;;0.00;0.00;;;25.50;55.90;;;;;;4149325;28;20122;-70
2022/09/06 06:33:05;;;;;;;0.08;0.08;;;25.50;55.90;;;;;;4173212;28;20415;-70
2022/09/06 06:35:57;;;;;;;0.28;0.28;;;25.40;55.80;;;;;;4149280;28;20076;-69
2022/09/06 06:38:41;;;;;;;0.68;0.68;;;25.40;55.90;;;;;;4164680;28;20112;-72
2022/09/06 06:41:24;;;;;;;0.65;0.47;;;25.40;55.90;;;;;;4171811;28;20055;-70
2022/09/06 06:44:07;;;;;;;1.08;1.08;;;25.40;55.90;;;;;;4172804;28;20047;-69
2022/09/06 06:46:51;;;;;;;0.00;0.00;;;25.40;56.00;;;;;;4159348;28;20056;-71
2022/09/06 06:49:33;;;;;;;0.40;0.40;;;25.40;56.00;;;;;;4161874;28;20460;-69
2022/09/06 06:52:14;;;;;;;0.85;0.85;;;25.40;56.10;;;;;;4166001;28;20554;-70
2022/09/06 06:54:56;;;;;;;0.03;0.03;;;25.40;56.20;;;;;;4169550;28;20060;-69
2022/09/06 06:57:40;;;;;;;0.00;0.00;;;25.40;56.90;;;;;;4161380;28;20068;-70
2022/09/06 07:00:26;;;;;;;0.10;0.10;;;25.40;56.20;;;;;;4146322;28;20049;-69
2022/09/06 07:03:09;;;;;;;7.65;2.40;;;25.40;56.30;;;;;;4162887;28;20056;-69
2022/09/06 07:05:50;;;;;;;0.00;0.00;;;25.40;56.30;;;;;;4156520;28;20061;-70
2022/09/06 07:08:51;;;;;;;0.10;0.10;;;25.40;56.30;;;;;;4149904;28;20060;-70
2022/09/06 07:11:33;;;;;;;0.00;0.00;;;25.30;56.30;;;;;;4145188;28;20084;-70
2022/09/06 07:14:15;;;;;;;0.00;0.00;;;25.30;56.40;;;;;;4159014;28;20869;-69
2022/09/06 07:16:59;;;;;;;0.00;0.00;;;25.30;56.40;;;;;;4158735;28;20060;-70
2022/09/06 07:19:42;;;;;;;3.47;2.17;;;25.30;56.50;;;;;;4154644;28;20135;-69
2022/09/06 07:22:43;;;;;;;0.10;0.10;;;25.30;56.50;;;;;;4175723;28;20056;-69
2022/09/06 07:25:24;;;;;;;0.00;0.00;;;25.30;56.50;;;;;;4164655;28;20403;-69
2022/09/06 07:28:06;;;;;;;1.60;0.55;;;25.30;56.60;;;;;;4162896;28;20617;-69
2022/09/06 07:30:48;;;;;;;0.08;0.08;;;25.30;56.60;;;;;;4176356;28;20106;-69
2022/09/06 07:33:30;;;;;;;0.38;0.38;;;25.30;56.60;;;;;;4168573;28;20184;-69
2022/09/06 07:36:12;;;;;;;0.10;0.10;;;25.30;56.80;;;;;;4158451;28;20127;-70
2022/09/06 07:38:54;;;;;;;0.00;0.00;;;25.30;56.70;;;;;;4159759;28;20048;-70
2022/09/06 07:41:35;;;;;;;0.00;0.00;;;25.30;56.80;;;;;;4160822;28;20134;-70
2022/09/06 07:44:16;;;;;;;10.18;1.80;;;25.30;56.90;;;;;;4159607;28;20059;-69
2022/09/06 07:47:01;;;;;;;0.08;0.08;;;25.40;57.10;;;;;;4160225;28;20156;-69
2022/09/06 07:50:05;;;;;;;0.30;0.30;;;25.40;57.30;;;;;;4160343;28;20076;-70
2022/09/06 07:53:06;;;;;;;0.08;0.08;;;25.50;57.40;;;;;;4147647;28;20271;-70
2022/09/06 07:55:48;;;;;;;0.00;0.00;;;25.60;58.20;;;;;;4172371;28;20506;-70
2022/09/06 07:58:29;;;;;;;;;;;25.60;57.30;;;;;;4177044;28;20068;-70
2022/09/06 08:01:19;;;;;;;0.00;0.00;;;25.60;57.10;;;;;;4175580;28;19927;-70
2022/09/06 08:04:02;;;;;;;0.30;0.30;;;25.70;57.10;;;;;;4164000;28;20099;-70
2022/09/06 08:06:47;;;;;;;1.02;1.02;;;25.70;57.00;;;;;;4176295;28;20055;-70
2022/09/06 08:09:48;;;;;;;1.15;1.10;;;25.80;57.00;;;;;;4175875;28;20056;-70
2022/09/06 08:12:28;;;;;;;0.00;0.00;;;25.80;57.00;;;;;;4160428;28;20080;-70
2022/09/06 08:15:10;;;;;;;0.20;0.20;;;25.90;57.60;;;;;;4159672;28;20056;-71
2022/09/06 08:17:51;;;;;;;0.45;0.45;;;25.90;56.80;;;;;;4160050;28;20064;-70
2022/09/06 08:20:33;;;;;;;;;;;25.90;56.80;;;;;;4160232;28;20172;-70
2022/09/06 08:23:15;;;;;;;0.28;0.28;;;25.90;56.60;;;;;;4175799;28;19974;-70
2022/09/06 08:25:57;;;;;;;0.25;0.25;;;25.90;56.60;;;;;;4176100;28;20561;-71
2022/09/06 08:28:38;;;;;;;4.57;1.85;;;26.00;56.70;;;;;;4176002;28;20059;-71
2022/09/06 08:31:19;;;;;;;0.50;0.50;;;26.00;56.70;;;;;;4161976;28;20056;-71
2022/09/06 08:34:01;;;;;;;1.05;0.95;;;26.00;56.60;;;;;;4163811;28;20079;-70
2022/09/06 08:36:43;;;;;;;0.00;0.00;;;26.00;56.60;;;;;;4174560;28;20052;-71
2022/09/06 08:39:26;;;;;;;0.03;0.03;;;26.00;56.50;;;;;;4174108;28;20094;-70
2022/09/06 08:42:08;;;;;;;0.00;0.00;;;26.00;56.50;;;;;;4159450;28;20051;-70
2022/09/06 08:44:52;;;;;;;0.10;0.10;;;26.00;56.40;;;;;;4174208;28;20807;-71
2022/09/06 08:47:34;;;;;;;0.08;0.08;;;26.00;56.50;;;;;;4159131;28;20219;-71
2022/09/06 08:50:15;;;;;;;0.25;0.25;;;26.00;56.60;;;;;;4159397;28;20068;-70
2022/09/06 08:53:02;;;;;;;0.32;0.32;;;26.00;56.80;;;;;;4159017;28;20143;-69
2022/09/06 08:56:05;;;;;;;0.73;0.73;;;26.00;56.80;;;;;;4158781;28;20072;-71
2022/09/06 08:58:59;;;;;;;0.65;0.65;;;26.00;56.80;;;;;;4165943;28;20060;-70
2022/09/06 09:01:47;;;;;;;0.00;0.00;;;26.00;56.80;;;;;;4174943;28;20060;-68
2022/09/06 09:04:29;;;;;;;2.55;1.85;;;26.10;56.90;;;;;;4175098;28;20078;-69
2022/09/06 09:07:27;;;;;;;0.00;0.00;;;26.10;56.90;;;;;;4175415;28;20052;-70
2022/09/06 09:10:12;;;;;;;0.43;0.40;;;26.10;56.80;;;;;;4151278;28;20118;-70
2022/09/06 09:12:55;;;;;;;1.55;1.45;;;26.20;57.50;;;;;;4158681;28;20507;-70
2022/09/06 09:15:36;;;;;;;1.13;1.13;;;26.20;56.70;;;;;;4158793;28;20045;-70
2022/09/06 09:18:25;;;;;;;0.00;0.00;;;26.30;56.60;;;;;;4158609;28;20083;-70
2022/09/06 09:21:06;;;;;;;0.00;0.00;;;26.30;56.50;;;;;;4162016;28;20119;-70
2022/09/06 09:23:53;;;;;;;0.05;0.05;;;26.30;56.40;;;;;;4160374;28;20538;-71
2022/09/06 09:26:40;;;;;;;0.55;0.55;;;26.30;56.40;;;;;;4160294;28;20508;-71
2022/09/06 09:29:22;;;;;;;0.30;0.30;;;26.40;56.40;;;;;;4159089;28;20499;-71
2022/09/06 09:32:07;;;;;;;0.85;0.82;;;26.40;56.30;;;;;;4172979;28;20070;-72
2022/09/06 09:34:49;;;;;;;0.75;0.75;;;26.40;56.10;;;;;;4162008;28;20117;-71
2022/09/06 09:37:30;;;;;;;0.35;0.35;;;26.40;56.00;;;;;;4162645;28;20056;-71
2022/09/06 09:40:34;;;;;;;0.30;0.30;;;26.40;56.10;;;;;;4172677;28;20056;-72
2022/09/06 09:43:19;;;;;;;0.52;0.52;;;26.50;56.10;;;;;;4158718;28;20048;-69
2022/09/06 09:46:14;;;;;;;2.38;1.98;;;26.40;56.10;;;;;;4171496;28;20187;-69
2022/09/06 09:49:03;;;;;;;0.20;0.20;;;26.40;56.00;;;;;;4162284;28;20121;-69
2022/09/06 09:51:45;;;;;;;1.15;0.93;;;26.40;56.10;;;;;;4151111;28;20172;-70
2022/09/06 09:54:31;;;;;;;0.00;0.00;;;26.50;56.10;;;;;;4158870;28;20131;-70
2022/09/06 09:57:18;;;;;;;0.10;0.10;;;26.50;56.10;;;;;;4155597;28;20517;-70
2022/09/06 10:00:00;;;;;;;0.00;0.00;;;26.50;56.10;;;;;;4175137;28;20059;-70
2022/09/06 10:02:46;;;;;;;0.10;0.10;;;26.50;56.10;;;;;;4138769;28;20090;-70
2022/09/06 10:05:28;;;;;;;0.00;0.00;;;26.50;56.00;;;;;;4158622;28;20052;-70
2022/09/06 10:08:12;;;;;;;35.97;2.22;;;26.60;56.10;;;;;;4158209;28;20049;-70
2022/09/06 10:10:53;;;;;;;0.90;0.90;;;26.60;56.00;;;;;;4160522;28;20065;-70
2022/09/06 10:13:34;;;;;;;0.00;0.00;;;26.60;56.00;;;;;;4173848;28;20047;-70
2022/09/06 10:16:15;;;;;;;0.35;0.35;;;26.60;55.80;;;;;;4162248;28;20457;-68
2022/09/06 10:18:58;;;;;;;0.90;0.90;;;26.60;55.80;;;;;;4158759;28;20499;-67
2022/09/06 10:21:38;;;;;;;0.25;0.25;;;26.70;55.90;;;;;;4159968;28;20055;-69
2022/09/06 10:24:22;;;;;;;;;;;26.70;56.70;;;;;;4174832;28;20134;-68
2022/09/06 10:27:09;;;;;;;1.42;1.42;;;26.70;56.60;;;;;;4173448;28;19927;-69
2022/09/06 10:29:54;;;;;;;;;;;26.80;56.40;;;;;;4175108;28;20051;-70
2022/09/06 10:32:41;;;;;;;0.10;0.10;;;26.70;55.80;;;;;;4174456;28;20303;-70
2022/09/06 10:35:26;;;;;;;0.32;0.32;;;26.80;56.00;;;;;;4173612;28;20052;-69
2022/09/06 10:38:31;;;;;;;0.00;0.00;;;26.80;55.90;;;;;;4175103;28;20503;-69
2022/09/06 10:41:34;;;;;;;0.00;0.00;;;26.80;55.90;;;;;;4162346;28;20179;-69
2022/09/06 10:44:31;;;;;;;0.00;0.00;;;26.80;55.60;;;;;;4175146;28;20059;-70
2022/09/06 10:47:14;;;;;;;0.25;0.25;;;26.80;55.60;;;;;;4154919;28;20506;-69
2022/09/06 10:49:58;;;;;;;0.00;0.00;;;26.80;55.40;;;;;;4158766;28;20044;-70
2022/09/06 10:52:44;;;;;;;0.03;0.03;;;26.90;55.50;;;;;;4161691;28;20188;-69
2022/09/06 10:55:25;;;;;;;0.20;0.20;;;26.90;55.50;;;;;;4160897;28;20061;-70
2022/09/06 10:58:09;;;;;;;0.22;0.22;;;26.90;55.30;;;;;;4160980;28;20048;-68
2022/09/06 11:00:57;;;;;;;0.65;0.65;;;26.90;55.30;;;;;;4175060;28;20103;-69
2022/09/06 11:03:42;;;;;;;0.20;0.20;;;26.90;55.00;;;;;;4177226;28;20122;-68
2022/09/06 11:06:45;;;;;;;0.20;0.20;;;26.90;55.10;;;;;;4176991;28;20146;-69
2022/09/06 11:09:33;;;;;;;0.68;0.68;;;27.00;55.10;;;;;;4175229;28;20166;-69
2022/09/06 11:12:23;;;;;;;2.50;1.67;;;27.00;55.00;;;;;;4161120;28;20064;-69
2022/09/06 11:15:06;;;;;;;1.13;0.68;;;27.00;55.00;;;;;;4162887;28;20055;-69
2022/09/06 11:17:53;;;;;;;0.25;0.25;;;27.00;55.00;;;;;;4163174;28;20095;-70
2022/09/06 11:20:38;;;;;;;0.20;0.20;;;27.10;54.90;;;;;;4168110;28;20103;-68
2022/09/06 11:23:38;;;;;;;0.10;0.10;;;27.10;54.70;;;;;;4175416;28;20454;-68
2022/09/06 11:26:34;;;;;;;0.00;0.00;;;27.10;54.70;;;;;;4164885;28;20079;-68
2022/09/06 11:29:21;;;;;;;0.13;0.13;;;27.20;54.80;;;;;;4167347;28;20187;-69
2022/09/06 11:32:24;;;;;;;0.03;0.03;;;27.20;55.40;;;;;;4159776;28;20041;-68
2022/09/06 11:35:09;;;;;;;0.25;0.25;;;27.20;54.70;;;;;;4166299;28;20102;-62
2022/09/06 11:38:00;;;;;;;0.00;0.00;;;27.20;54.60;;;;;;4160850;28;20052;-62
2022/09/06 11:40:44;;;;;;;61.38;2.13;;;27.20;54.40;;;;;;4160186;28;20424;-64
2022/09/06 11:43:47;;;;;;;0.03;0.03;;;27.20;54.50;;;;;;4168138;28;20048;-62
2022/09/06 11:47:06;;;;;;;0.17;0.17;;;27.30;54.50;;;;;;4160209;28;20175;-62
2022/09/06 11:49:47;;;;;;;0.22;0.22;;;27.30;54.30;;;;;;4159728;28;20194;-62
2022/09/06 11:52:42;;;;;;;;;;;27.30;54.20;;;;;;4148426;28;20052;-63
2022/09/06 11:55:29;;;;;;;1.65;1.48;;;27.30;54.20;;;;;;4174806;28;20282;-62
2022/09/06 11:58:23;;;;;;;0.00;0.00;;;27.40;54.10;;;;;;4176289;28;20457;-63
2022/09/06 12:01:37;;;;;;;0.10;0.10;;;27.40;54.20;;;;;;4171691;28;20072;-63
2022/09/06 12:04:18;;;;;;;0.00;0.00;;;27.40;54.10;;;;;;4176259;28;20083;-63
2022/09/06 12:07:07;;;;;;;;;;;27.40;53.90;;;;;;4175991;28;20604;-63
2022/09/06 12:09:49;;;;;;;1.08;1.08;;;27.40;53.50;;;;;;4175274;28;20290;-62
2022/09/06 12:12:49;;;;;;;0.20;0.20;;;27.50;53.90;;;;;;4176341;28;20418;-62
2022/09/06 12:15:32;;;;;;;0.25;0.25;;;27.50;53.80;;;;;;4175100;28;20199;-62
2022/09/06 12:18:56;;;;;;;0.00;0.00;;;27.50;53.90;;;;;;4175719;28;20110;-63
2022/09/06 12:21:50;;;;;;;0.45;0.45;;;27.50;53.90;;;;;;4170320;28;20063;-63
2022/09/06 12:24:52;;;;;;;0.17;0.17;;;27.50;53.90;;;;;;4176067;28;20052;-63
2022/09/06 12:27:36;;;;;;;0.00;0.00;;;27.50;53.80;;;;;;4176405;28;20056;-62
2022/09/06 12:30:33;;;;;;;0.22;0.22;;;27.60;53.80;;;;;;4160304;28;20183;-63
2022/09/06 12:33:17;;;;;;;0.00;0.00;;;27.60;53.70;;;;;;4165858;28;20060;-63
2022/09/06 12:36:18;;;;;;;0.10;0.10;;;27.60;54.30;;;;;;4160091;28;20053;-63
2022/09/06 12:39:01;;;;;;;0.00;0.00;;;27.60;53.50;;;;;;4158859;28;20060;-64
2022/09/06 12:41:46;;;;;;;0.00;0.00;;;27.70;53.70;;;;;;4159533;28;20179;-63
2022/09/06 12:44:35;;;;;;;0.00;0.00;;;27.70;53.70;;;;;;4169928;28;20490;-63
2022/09/06 12:47:23;;;;;;;0.73;0.73;;;27.70;53.80;;;;;;4172483;28;20055;-64
2022/09/06 12:50:15;;;;;;;0.00;0.00;;;27.70;53.70;;;;;;4176020;28;20052;-63
2022/09/06 12:52:59;;;;;;;0.00;0.00;;;27.70;53.80;;;;;;4175155;28;20179;-63
2022/09/06 12:55:40;;;;;;;0.00;0.00;;;27.80;53.40;;;;;;4163283;28;20060;-68
2022/09/06 12:58:28;;;;;;;0.00;0.00;;;27.80;53.60;;;;;;4159249;28;20060;-68
2022/09/06 13:01:15;;;;;;;0.03;0.03;;;27.80;53.40;;;;;;4163947;28;20174;-68
2022/09/06 13:04:01;;;;;;;0.00;0.00;;;27.80;53.60;;;;;;4175658;28;20052;-69
2022/09/06 13:06:45;;;;;;;2.83;0.47;;;27.90;53.60;;;;;;4159649;28;20051;-68
2022/09/06 13:09:29;;;;;;;0.38;0.38;;;27.90;53.50;;;;;;4159513;28;20052;-68
2022/09/06 13:12:21;;;;;;;0.00;0.00;;;27.90;53.50;;;;;;4163171;28;20067;-69
2022/09/06 13:15:07;;;;;;;0.03;0.03;;;27.90;53.50;;;;;;4173105;28;20060;-68
2022/09/06 13:17:49;;;;;;;0.00;0.00;;;28.00;53.60;;;;;;4147856;28;20057;-69
2022/09/06 13:20:31;;;;;;;0.15;0.15;;;28.00;54.50;;;;;;4175001;28;20550;-68
2022/09/06 13:23:20;;;;;;;0.20;0.20;;;28.00;53.50;;;;;;4168408;28;20056;-69
2022/09/06 13:26:02;;;;;;;0.00;0.00;;;28.00;53.00;;;;;;4159998;28;20068;-69
2022/09/06 13:28:43;;;;;;;0.13;0.13;;;28.10;53.90;;;;;;4164904;28;20099;-70
2022/09/06 13:31:26;;;;;;;;;;;28.10;53.30;;;;;;4170067;28;20047;-71
2022/09/06 13:34:07;;;;;;;0.00;0.00;;;28.10;53.00;;;;;;4175115;28;19931;-69
2022/09/06 13:36:51;;;;;;;0.20;0.20;;;28.20;53.20;;;;;;4164423;28;20052;-69
2022/09/06 13:39:34;;;;;;;0.00;0.00;;;28.10;53.10;;;;;;4158995;28;20180;-69
2022/09/06 13:42:27;;;;;;;0.00;0.00;;;28.20;53.10;;;;;;4160267;28;20487;-69
2022/09/06 13:45:24;;;;;;;0.50;0.50;;;28.20;52.90;;;;;;4172270;28;20126;-70
2022/09/06 13:48:06;;;;;;;0.00;0.00;;;28.20;52.90;;;;;;4161022;28;20060;-69
2022/09/06 13:51:09;;;;;;;0.60;0.60;;;28.20;52.80;;;;;;4165589;28;20059;-69
2022/09/06 13:53:50;;;;;;;0.00;0.00;;;28.30;52.70;;;;;;4158631;28;20131;-69
2022/09/06 13:56:31;;;;;;;1.35;1.00;;;28.30;52.40;;;;;;4146409;28;20104;-69
2022/09/06 13:59:14;;;;;;;0.20;0.20;;;28.30;52.60;;;;;;4158177;28;20183;-68
2022/09/06 14:02:00;;;;;;;0.10;0.10;;;28.30;52.90;;;;;;4158420;28;20072;-69
2022/09/06 14:04:42;;;;;;;0.05;0.05;;;28.30;53.10;;;;;;4169403;28;20052;-68
2022/09/06 14:07:22;;;;;;;0.32;0.28;;;28.40;53.10;;;;;;4157969;28;20051;-69
2022/09/06 14:10:04;;;;;;;0.45;0.45;;;28.40;52.80;;;;;;4158073;28;20119;-68
2022/09/06 14:12:45;;;;;;;0.10;0.10;;;28.40;52.30;;;;;;4158180;28;20040;-69
2022/09/06 14:15:27;;;;;;;0.20;0.20;;;28.40;52.60;;;;;;4165774;28;20059;-69
2022/09/06 14:18:08;;;;;;;0.22;0.22;;;28.50;52.80;;;;;;4170567;28;20543;-68
2022/09/06 14:20:56;;;;;;;0.00;0.00;;;28.50;52.50;;;;;;4161430;28;20048;-66
2022/09/06 14:23:38;;;;;;;0.22;0.22;;;28.50;52.20;;;;;;4158199;28;20164;-68
2022/09/06 14:26:20;;;;;;;0.00;0.00;;;28.50;52.00;;;;;;4135765;28;20136;-70
2022/09/06 14:29:05;;;;;;;0.00;0.00;;;28.50;52.30;;;;;;4170725;28;20059;-69